Terminal Aerodrome Forecast
Issued by NWS

Home | Current Version | Previous Version | Text Only | Print | Product List | Glossary On
Versions: 1 2 3 4 5 6 7 8 9 10 11 12 13 14
000
FTUS46 KSEW 231306 AAA
TAFPAE
TAF AMD
KPAE 231306Z 2313/2412 02003KT P6SM SKC
     FM231800 26008KT P6SM SCT250
     FM232200 29015KT P6SM SCT060
     FM240000 34015G25KT P6SM BKN050=

USA.gov is the U.S. government's official web portal to all federal, state and local government web resources and services.